Time;durP1;ratioP1;P1;durP2;ratioP2;P2;SDS_P1;SDS_P2;PMS_P1;PMS_P2;Temp;Humidity;BMP_temperature;BMP_pressure;BME280_temperature;BME280_humidity;BME280_pressure;Samples;Min_cycle;Max_cycle;Signal;HPM_P1;HPM_P2
2022/03/01 00:02:05;;;;;;;15.82;6.78;;;;;;;;;;5091828;28;20043;-93
2022/03/01 00:04:31;;;;;;;19.10;6.68;;;;;;;;;;5092155;28;20127;-90
2022/03/01 00:06:57;;;;;;;12.88;6.18;;;;;;;;;;5092923;28;20541;-91
2022/03/01 00:09:23;;;;;;;12.75;6.10;;;;;;;;;;5090897;28;20021;-89
2022/03/01 00:11:49;;;;;;;10.98;6.35;;;;;;;;;;5089622;28;20035;-89
2022/03/01 00:14:15;;;;;;;16.20;6.30;;;;;;;;;;5090644;28;20028;-90
2022/03/01 00:16:42;;;;;;;18.02;6.68;;;;;;;;;;5089084;28;20070;-90
2022/03/01 00:19:08;;;;;;;15.43;6.25;;;;;;;;;;5090483;28;20475;-90
2022/03/01 00:21:34;;;;;;;16.92;5.93;;;;;;;;;;5090680;28;20111;-90
2022/03/01 00:24:00;;;;;;;16.35;6.50;;;;;;;;;;5091942;28;20024;-92
2022/03/01 00:26:26;;;;;;;13.02;6.00;;;;;;;;;;5093328;28;20576;-91
2022/03/01 00:28:52;;;;;;;15.15;7.05;;;;;;;;;;5091446;28;20024;-89
2022/03/01 00:31:18;;;;;;;19.80;7.72;;;;;;;;;;5090355;28;20048;-90
2022/03/01 00:33:44;;;;;;;15.27;7.15;;;;;;;;;;5089665;28;20299;-88
2022/03/01 00:36:10;;;;;;;14.82;7.70;;;;;;;;;;5090007;28;20020;-89
2022/03/01 00:38:37;;;;;;;17.08;7.78;;;;;;;;;;5088794;28;20496;-89
2022/03/01 00:41:03;;;;;;;13.98;7.28;;;;;;;;;;5088890;28;20047;-89
2022/03/01 00:43:29;;;;;;;17.55;6.88;;;;;;;;;;5088182;28;20536;-89
2022/03/01 00:45:55;;;;;;;17.95;7.28;;;;;;;;;;5088589;28;20039;-89
2022/03/01 00:48:21;;;;;;;18.75;8.30;;;;;;;;;;5089493;28;20016;-90
2022/03/01 00:50:48;;;;;;;18.55;8.30;;;;;;;;;;5088279;28;20384;-90
2022/03/01 00:53:14;;;;;;;17.25;8.02;;;;;;;;;;5089765;28;20098;-90
2022/03/01 00:55:40;;;;;;;21.55;9.32;;;;;;;;;;5089289;28;20035;-90
2022/03/01 00:58:07;;;;;;;17.98;8.13;;;;;;;;;;5089858;28;20031;-89
2022/03/01 01:00:34;;;;;;;16.88;8.07;;;;;;;;;;5088158;28;20024;-89
2022/03/01 01:03:01;;;;;;;17.60;7.80;;;;;;;;;;5087872;28;20453;-89
2022/03/01 01:05:27;;;;;;;17.42;7.72;;;;;;;;;;5089179;28;20032;-90
2022/03/01 01:07:53;;;;;;;19.17;8.23;;;;;;;;;;5089042;28;20036;-89
2022/03/01 01:10:19;;;;;;;17.17;9.07;;;;;;;;;;5088856;28;20017;-90
2022/03/01 01:12:46;;;;;;;17.70;8.85;;;;;;;;;;5087636;28;20284;-91
2022/03/01 01:15:13;;;;;;;17.65;8.35;;;;;;;;;;5088154;28;20036;-90
2022/03/01 01:17:39;;;;;;;19.88;9.38;;;;;;;;;;5087177;28;20019;-89
2022/03/01 01:20:06;;;;;;;19.23;8.70;;;;;;;;;;5088077;28;20032;-89
2022/03/01 01:22:41;;;;;;;17.83;8.57;;;;;;;;;;5087803;28;20039;-89
2022/03/01 01:25:15;;;;;;;23.92;8.38;;;;;;;;;;5087743;28;20031;-89
2022/03/01 01:27:42;;;;;;;21.25;8.68;;;;;;;;;;5087776;28;20034;-89
2022/03/01 01:30:09;;;;;;;17.27;8.75;;;;;;;;;;5088147;28;20027;-89
2022/03/01 01:32:36;;;;;;;15.32;8.65;;;;;;;;;;5088959;28;20035;-89
2022/03/01 01:35:02;;;;;;;18.27;8.25;;;;;;;;;;5086923;28;20063;-90
2022/03/01 01:37:29;;;;;;;17.13;8.60;;;;;;;;;;5088779;28;20012;-89
2022/03/01 01:39:55;;;;;;;20.30;8.70;;;;;;;;;;5089586;28;20085;-90
2022/03/01 01:42:21;;;;;;;20.98;9.73;;;;;;;;;;5089023;28;20028;-89
2022/03/01 01:44:47;;;;;;;14.68;8.93;;;;;;;;;;5087736;28;20028;-89
2022/03/01 01:47:13;;;;;;;24.48;9.57;;;;;;;;;;5087332;28;20028;-92
2022/03/01 01:49:39;;;;;;;18.88;9.20;;;;;;;;;;5087480;28;20399;-90
2022/03/01 01:52:06;;;;;;;18.85;9.77;;;;;;;;;;5087716;28;20031;-90
2022/03/01 01:54:32;;;;;;;20.70;9.80;;;;;;;;;;5087952;28;20024;-89
2022/03/01 01:56:58;;;;;;;20.58;10.50;;;;;;;;;;5087773;28;20054;-89
2022/03/01 01:59:24;;;;;;;22.48;10.15;;;;;;;;;;5088299;28;20024;-89
2022/03/01 02:01:50;;;;;;;20.83;10.10;;;;;;;;;;5088286;28;20036;-88
2022/03/01 02:04:17;;;;;;;17.23;10.35;;;;;;;;;;5087620;28;20120;-89
2022/03/01 02:06:50;;;;;;;20.42;10.98;;;;;;;;;;5086961;28;20028;-90
2022/03/01 02:09:16;;;;;;;21.02;10.82;;;;;;;;;;5088872;28;20021;-90
2022/03/01 02:11:42;;;;;;;20.55;10.32;;;;;;;;;;5087367;28;20392;-90
2022/03/01 02:14:08;;;;;;;20.42;9.93;;;;;;;;;;5088022;28;20032;-90
2022/03/01 02:16:35;;;;;;;18.95;10.13;;;;;;;;;;5088542;28;20079;-89
2022/03/01 02:19:01;;;;;;;21.70;9.85;;;;;;;;;;5088341;28;20028;-89
2022/03/01 02:21:27;;;;;;;19.27;9.82;;;;;;;;;;5087733;28;20067;-89
2022/03/01 02:23:53;;;;;;;20.15;10.07;;;;;;;;;;5087826;28;20024;-89
2022/03/01 02:26:19;;;;;;;18.02;9.95;;;;;;;;;;5088393;28;20387;-90
2022/03/01 02:28:45;;;;;;;20.50;9.80;;;;;;;;;;5087294;28;20017;-91
2022/03/01 02:31:12;;;;;;;23.67;10.30;;;;;;;;;;5088866;28;20020;-90
2022/03/01 02:33:38;;;;;;;22.88;9.95;;;;;;;;;;5090273;28;20387;-92
2022/03/01 02:36:04;;;;;;;20.05;9.73;;;;;;;;;;5096232;28;20030;-91
2022/03/01 02:38:30;;;;;;;21.48;9.82;;;;;;;;;;5092175;28;20118;-91
2022/03/01 02:40:56;;;;;;;22.92;10.23;;;;;;;;;;5092516;28;20503;-90
2022/03/01 02:43:22;;;;;;;20.33;10.13;;;;;;;;;;5092890;28;20016;-90
2022/03/01 02:45:48;;;;;;;19.52;11.00;;;;;;;;;;5103044;28;20225;-89
2022/03/01 02:48:14;;;;;;;18.55;9.90;;;;;;;;;;5091006;28;20097;-89
2022/03/01 02:50:41;;;;;;;23.80;10.40;;;;;;;;;;5098521;28;20027;-89
2022/03/01 02:53:07;;;;;;;26.23;10.70;;;;;;;;;;5111499;28;20028;-89
2022/03/01 02:55:33;;;;;;;20.92;10.40;;;;;;;;;;5111030;28;20032;-89
2022/03/01 02:57:59;;;;;;;22.20;10.88;;;;;;;;;;5110713;28;20483;-88
2022/03/01 03:00:25;;;;;;;19.00;10.52;;;;;;;;;;5111954;28;20024;-89
2022/03/01 03:02:52;;;;;;;21.30;10.57;;;;;;;;;;5108907;28;20071;-89
2022/03/01 03:05:18;;;;;;;20.52;11.05;;;;;;;;;;5094062;28;20051;-89
2022/03/01 03:07:44;;;;;;;25.38;12.30;;;;;;;;;;5090484;28;20024;-89
2022/03/01 03:10:11;;;;;;;26.33;11.85;;;;;;;;;;5090628;28;20468;-88
2022/03/01 03:12:37;;;;;;;22.48;11.43;;;;;;;;;;5090871;28;20153;-89
2022/03/01 03:15:04;;;;;;;21.38;10.40;;;;;;;;;;5110785;28;20106;-90
2022/03/01 03:17:31;;;;;;;20.58;10.48;;;;;;;;;;5109863;28;20495;-89
2022/03/01 03:19:57;;;;;;;19.85;10.20;;;;;;;;;;5110481;28;20034;-89
2022/03/01 03:22:23;;;;;;;25.85;11.63;;;;;;;;;;5112145;28;20391;-89
2022/03/01 03:24:49;;;;;;;22.35;11.05;;;;;;;;;;5111508;28;20224;-89
2022/03/01 03:27:15;;;;;;;22.83;10.77;;;;;;;;;;5110880;28;20076;-88
2022/03/01 03:29:41;;;;;;;25.90;12.00;;;;;;;;;;5110356;28;20099;-89
2022/03/01 03:32:08;;;;;;;20.52;11.32;;;;;;;;;;5110835;28;20122;-89
2022/03/01 03:34:34;;;;;;;23.77;10.82;;;;;;;;;;5111938;28;20431;-90
2022/03/01 03:37:00;;;;;;;24.20;11.02;;;;;;;;;;5110980;28;20032;-90
2022/03/01 03:39:26;;;;;;;21.25;10.52;;;;;;;;;;5094769;28;20024;-89
2022/03/01 03:41:52;;;;;;;22.05;11.38;;;;;;;;;;5091262;28;20036;-89
2022/03/01 03:44:18;;;;;;;20.92;11.35;;;;;;;;;;5090128;28;20024;-89
2022/03/01 03:46:44;;;;;;;18.48;10.48;;;;;;;;;;5089906;28;20032;-89
2022/03/01 03:49:11;;;;;;;20.45;10.48;;;;;;;;;;5091445;28;20020;-90
2022/03/01 03:51:37;;;;;;;20.65;10.77;;;;;;;;;;5090013;28;20080;-89
2022/03/01 03:54:03;;;;;;;27.17;10.90;;;;;;;;;;5090839;28;20438;-89
2022/03/01 03:56:29;;;;;;;23.60;10.90;;;;;;;;;;5091937;28;20077;-90
2022/03/01 03:58:57;;;;;;;23.08;11.13;;;;;;;;;;5089961;28;20020;-88
2022/03/01 04:01:23;;;;;;;17.73;10.23;;;;;;;;;;5089613;28;20032;-90
2022/03/01 04:03:50;;;;;;;22.40;11.52;;;;;;;;;;5091137;28;20020;-88
2022/03/01 04:06:16;;;;;;;19.83;10.18;;;;;;;;;;5089893;28;20539;-89
2022/03/01 04:08:42;;;;;;;26.80;11.20;;;;;;;;;;5090661;28;20034;-89
2022/03/01 04:11:08;;;;;;;22.50;11.15;;;;;;;;;;5090270;28;20035;-89
2022/03/01 04:13:34;;;;;;;17.45;10.10;;;;;;;;;;5091110;28;20024;-88
2022/03/01 04:16:01;;;;;;;19.17;11.30;;;;;;;;;;5091755;28;20026;-89
2022/03/01 04:18:27;;;;;;;19.02;10.75;;;;;;;;;;5089974;28;20057;-89
2022/03/01 04:20:53;;;;;;;20.25;10.88;;;;;;;;;;5090261;28;20032;-88
2022/03/01 04:23:19;;;;;;;29.25;10.93;;;;;;;;;;5090195;28;20036;-89
2022/03/01 04:25:46;;;;;;;21.30;10.77;;;;;;;;;;5089394;28;20077;-90
2022/03/01 04:28:12;;;;;;;18.90;10.43;;;;;;;;;;5089676;28;20056;-89
2022/03/01 04:30:38;;;;;;;20.00;11.70;;;;;;;;;;5090898;28;20176;-88
2022/03/01 04:33:04;;;;;;;18.63;10.77;;;;;;;;;;5089251;28;20046;-89
2022/03/01 04:35:30;;;;;;;22.95;11.35;;;;;;;;;;5089988;28;20407;-87
2022/03/01 04:37:56;;;;;;;20.65;10.50;;;;;;;;;;5089767;28;20035;-87
2022/03/01 04:40:22;;;;;;;23.02;11.55;;;;;;;;;;5091124;28;20027;-92
2022/03/01 04:42:49;;;;;;;21.25;10.95;;;;;;;;;;5093430;28;20036;-90
2022/03/01 04:45:16;;;;;;;20.05;11.40;;;;;;;;;;5093473;28;20016;-88
2022/03/01 04:47:42;;;;;;;21.67;11.57;;;;;;;;;;5090543;28;20118;-90
2022/03/01 04:50:09;;;;;;;23.83;11.80;;;;;;;;;;5089871;28;20082;-91
2022/03/01 04:52:35;;;;;;;22.63;12.00;;;;;;;;;;5089874;28;20031;-90
2022/03/01 04:55:04;;;;;;;25.30;11.98;;;;;;;;;;5090455;28;20047;-91
2022/03/01 04:57:30;;;;;;;23.85;11.93;;;;;;;;;;5090294;28;20028;-91
2022/03/01 04:59:56;;;;;;;21.30;11.60;;;;;;;;;;5089997;28;20032;-91
2022/03/01 05:02:22;;;;;;;24.05;12.93;;;;;;;;;;5089924;28;20074;-89
2022/03/01 05:04:48;;;;;;;25.23;12.13;;;;;;;;;;5089910;28;20028;-91
2022/03/01 05:07:16;;;;;;;23.92;12.07;;;;;;;;;;5090113;28;20028;-90
2022/03/01 05:12:33;;;;;;;26.13;12.73;;;;;;;;;;5092605;28;20480;-92
2022/03/01 05:15:05;;;;;;;;;;;;;;;;;;5090473;28;20019;-93
2022/03/01 05:18:00;;;;;;;31.80;13.15;;;;;;;;;;5094417;28;19904;-93
2022/03/01 05:20:27;;;;;;;28.90;12.75;;;;;;;;;;5080068;28;20122;-90
2022/03/01 05:22:53;;;;;;;27.58;13.38;;;;;;;;;;5088418;28;20043;-92
2022/03/01 05:25:21;;;;;;;24.45;12.18;;;;;;;;;;5089277;28;20046;-93
2022/03/01 05:27:48;;;;;;;24.92;12.18;;;;;;;;;;5089135;28;20063;-92
2022/03/01 05:30:14;;;;;;;21.75;12.07;;;;;;;;;;5090220;28;20499;-93
2022/03/01 05:32:43;;;;;;;32.78;13.85;;;;;;;;;;5089688;28;20061;-91
2022/03/01 05:35:09;;;;;;;25.63;12.95;;;;;;;;;;5088991;28;20024;-92
2022/03/01 05:37:36;;;;;;;30.50;14.20;;;;;;;;;;5090131;28;20036;-93
2022/03/01 05:40:02;;;;;;;25.35;13.48;;;;;;;;;;5090038;28;20477;-91
2022/03/01 05:42:28;;;;;;;24.38;13.20;;;;;;;;;;5089240;28;20376;-92
2022/03/01 05:44:55;;;;;;;27.88;13.52;;;;;;;;;;5089510;28;20016;-91
2022/03/01 05:47:21;;;;;;;25.48;12.95;;;;;;;;;;5089479;28;20028;-91
2022/03/01 05:49:48;;;;;;;32.72;13.95;;;;;;;;;;5089813;28;20035;-91
2022/03/01 05:52:14;;;;;;;29.50;14.35;;;;;;;;;;5090039;28;20150;-93
2022/03/01 05:54:40;;;;;;;22.48;12.85;;;;;;;;;;5089293;28;20020;-90
2022/03/01 05:57:06;;;;;;;26.95;13.75;;;;;;;;;;5090421;28;20039;-91
2022/03/01 05:59:32;;;;;;;27.38;14.00;;;;;;;;;;5090095;28;20016;-92
2022/03/01 06:01:58;;;;;;;27.17;14.05;;;;;;;;;;5089266;28;20040;-93
2022/03/01 06:04:26;;;;;;;26.63;13.98;;;;;;;;;;5089640;28;20020;-93
2022/03/01 06:06:53;;;;;;;23.77;14.15;;;;;;;;;;5094556;28;20036;-91
2022/03/01 06:09:19;;;;;;;29.40;13.70;;;;;;;;;;5097791;28;20422;-91
2022/03/01 06:11:48;;;;;;;27.02;14.32;;;;;;;;;;5106807;28;20020;-94
2022/03/01 06:14:14;;;;;;;28.48;14.90;;;;;;;;;;5093409;28;20031;-87
2022/03/01 06:16:43;;;;;;;26.90;15.10;;;;;;;;;;5093878;28;20028;-92
2022/03/01 06:19:09;;;;;;;24.65;14.88;;;;;;;;;;5093417;28;20028;-92
2022/03/01 06:21:38;;;;;;;29.02;15.20;;;;;;;;;;5093922;28;20028;-93
2022/03/01 06:24:05;;;;;;;30.77;16.20;;;;;;;;;;5094266;28;20115;-92
2022/03/01 06:26:31;;;;;;;29.63;15.38;;;;;;;;;;5094335;28;20024;-92
2022/03/01 06:29:05;;;;;;;27.83;15.32;;;;;;;;;;5093664;28;20601;-93
2022/03/01 06:31:32;;;;;;;28.42;15.95;;;;;;;;;;5094204;28;20020;-92
2022/03/01 06:34:00;;;;;;;29.13;15.43;;;;;;;;;;5093542;28;20032;-92
2022/03/01 06:36:27;;;;;;;27.85;14.98;;;;;;;;;;5093300;28;20482;-92
2022/03/01 06:38:53;;;;;;;28.02;16.00;;;;;;;;;;5093442;28;20040;-93
2022/03/01 06:41:19;;;;;;;31.10;16.27;;;;;;;;;;5093300;28;20036;-91
2022/03/01 06:43:46;;;;;;;24.92;15.13;;;;;;;;;;5093295;28;20028;-93
2022/03/01 06:46:15;;;;;;;35.17;16.58;;;;;;;;;;5093365;28;20474;-93
2022/03/01 06:48:43;;;;;;;33.97;15.68;;;;;;;;;;5093458;28;20020;-92
2022/03/01 06:51:10;;;;;;;30.63;15.88;;;;;;;;;;5093344;28;20024;-91
2022/03/01 06:53:36;;;;;;;34.58;16.63;;;;;;;;;;5093803;28;20032;-93
2022/03/01 06:56:03;;;;;;;36.83;15.98;;;;;;;;;;5093676;28;20032;-92
2022/03/01 06:58:30;;;;;;;31.45;15.27;;;;;;;;;;5092945;28;20035;-92
2022/03/01 07:00:56;;;;;;;35.17;15.52;;;;;;;;;;5093032;28;20054;-92
2022/03/01 07:03:22;;;;;;;34.50;15.93;;;;;;;;;;5093095;28;20039;-92
2022/03/01 07:05:49;;;;;;;27.05;15.55;;;;;;;;;;5092996;28;20426;-92
2022/03/01 07:08:15;;;;;;;33.15;15.85;;;;;;;;;;5092775;28;20438;-92
2022/03/01 07:10:44;;;;;;;33.85;15.57;;;;;;;;;;5092687;28;20026;-92
2022/03/01 07:13:12;;;;;;;31.88;16.15;;;;;;;;;;5092978;28;20024;-93
2022/03/01 07:15:40;;;;;;;30.50;15.15;;;;;;;;;;5093317;28;20036;-92
2022/03/01 07:18:07;;;;;;;30.55;15.15;;;;;;;;;;5093243;28;20088;-92
2022/03/01 07:20:34;;;;;;;37.95;16.42;;;;;;;;;;5092097;28;20032;-92
2022/03/01 07:23:00;;;;;;;33.20;15.37;;;;;;;;;;5092636;28;20373;-92
2022/03/01 07:25:27;;;;;;;36.53;15.30;;;;;;;;;;5092402;28;20107;-91
2022/03/01 07:27:54;;;;;;;26.55;14.52;;;;;;;;;;5092690;28;20032;-92
2022/03/01 07:30:21;;;;;;;30.85;15.35;;;;;;;;;;5092346;28;20107;-91
2022/03/01 07:32:48;;;;;;;38.65;16.15;;;;;;;;;;5102626;28;20028;-93
2022/03/01 07:35:14;;;;;;;33.88;16.58;;;;;;;;;;5111502;28;20060;-92
2022/03/01 07:37:40;;;;;;;34.22;15.65;;;;;;;;;;5112643;28;20015;-92
2022/03/01 07:40:11;;;;;;;31.15;16.25;;;;;;;;;;5098876;28;20100;-92
2022/03/01 07:42:38;;;;;;;37.85;15.57;;;;;;;;;;5092623;28;20036;-93
2022/03/01 07:45:05;;;;;;;31.40;15.18;;;;;;;;;;5092485;28;20032;-93
2022/03/01 07:47:36;;;;;;;32.20;14.98;;;;;;;;;;5092188;28;20028;-92
2022/03/01 07:50:03;;;;;;;39.45;16.23;;;;;;;;;;5092021;28;20496;-92
2022/03/01 07:52:29;;;;;;;29.85;15.10;;;;;;;;;;5091776;28;20028;-93
2022/03/01 07:54:55;;;;;;;32.13;15.15;;;;;;;;;;5092038;28;20024;-92
2022/03/01 07:57:21;;;;;;;31.90;15.40;;;;;;;;;;5091638;28;20067;-92
2022/03/01 07:59:48;;;;;;;31.90;15.10;;;;;;;;;;5091826;28;20059;-91
2022/03/01 08:02:14;;;;;;;31.55;15.82;;;;;;;;;;5091659;28;20040;-91
2022/03/01 08:04:41;;;;;;;25.38;15.60;;;;;;;;;;5092459;28;20040;-91
2022/03/01 08:07:11;;;;;;;28.30;16.00;;;;;;;;;;5092413;28;20032;-93
2022/03/01 08:09:41;;;;;;;34.30;15.35;;;;;;;;;;5092210;28;20187;-92
2022/03/01 08:12:09;;;;;;;32.65;15.80;;;;;;;;;;5092268;28;20055;-92
2022/03/01 08:14:38;;;;;;;37.38;15.38;;;;;;;;;;5091696;28;20526;-92
2022/03/01 08:17:06;;;;;;;;;;;;;;;;;;5091942;28;20055;-92
2022/03/01 08:19:32;;;;;;;;;;;;;;;;;;5091697;28;20272;-93
2022/03/01 08:21:58;;;;;;;36.85;16.27;;;;;;;;;;5091435;28;19962;-92
2022/03/01 08:24:27;;;;;;;34.33;16.48;;;;;;;;;;5091292;28;20024;-93
2022/03/01 08:26:53;;;;;;;29.48;16.02;;;;;;;;;;5091168;28;20066;-91
2022/03/01 08:29:22;;;;;;;32.63;16.05;;;;;;;;;;5091174;28;20020;-92
2022/03/01 08:32:06;;;;;;;36.42;16.05;;;;;;;;;;5090391;28;20065;-93
2022/03/01 08:34:32;;;;;;;28.33;14.93;;;;;;;;;;5091242;28;20476;-92
2022/03/01 08:37:00;;;;;;;36.55;17.45;;;;;;;;;;5091047;28;20035;-91
2022/03/01 08:39:26;;;;;;;26.45;15.52;;;;;;;;;;5090966;28;20012;-93
2022/03/01 08:41:55;;;;;;;34.40;16.38;;;;;;;;;;5090966;28;20040;-93
2022/03/01 08:44:21;;;;;;;29.85;15.48;;;;;;;;;;5090875;28;20107;-92
2022/03/01 08:46:47;;;;;;;23.48;14.70;;;;;;;;;;5090888;28;20040;-93
2022/03/01 08:49:20;;;;;;;31.30;16.17;;;;;;;;;;5091738;28;20118;-93
2022/03/01 08:51:48;;;;;;;28.33;15.73;;;;;;;;;;5090717;28;20062;-92
2022/03/01 08:54:17;;;;;;;31.92;15.05;;;;;;;;;;5090804;28;20032;-92
2022/03/01 08:56:43;;;;;;;28.20;15.35;;;;;;;;;;5091249;28;20047;-91
2022/03/01 08:59:15;;;;;;;27.30;14.48;;;;;;;;;;5091273;28;20035;-90
2022/03/01 09:01:43;;;;;;;33.22;15.95;;;;;;;;;;5091384;28;20024;-92
2022/03/01 09:04:12;;;;;;;33.67;15.15;;;;;;;;;;5091065;28;20073;-92
2022/03/01 09:06:43;;;;;;;29.50;15.40;;;;;;;;;;5090531;28;20468;-92
2022/03/01 09:09:11;;;;;;;30.10;13.60;;;;;;;;;;5090413;28;20027;-92
2022/03/01 09:11:37;;;;;;;;;;;;;;;;;;5090937;28;20462;-93
2022/03/01 09:14:04;;;;;;;39.28;14.02;;;;;;;;;;5090763;28;20359;-92
2022/03/01 09:16:30;;;;;;;26.02;13.57;;;;;;;;;;5090597;28;20024;-92
2022/03/01 09:18:58;;;;;;;28.48;13.00;;;;;;;;;;5090536;28;20032;-92
2022/03/01 09:21:24;;;;;;;26.63;13.32;;;;;;;;;;5090256;28;20070;-91
2022/03/01 09:23:51;;;;;;;25.63;13.55;;;;;;;;;;5090369;28;20024;-92
2022/03/01 09:26:19;;;;;;;31.60;13.27;;;;;;;;;;5090054;28;20464;-92
2022/03/01 09:28:48;;;;;;;29.60;13.02;;;;;;;;;;5090854;28;20456;-92
2022/03/01 09:31:14;;;;;;;27.38;13.00;;;;;;;;;;5090795;28;20110;-92
2022/03/01 09:33:42;;;;;;;29.33;12.55;;;;;;;;;;5090028;28;20020;-92
2022/03/01 09:36:28;;;;;;;;;;;;;;;;;;;;;
2022/03/01 09:38:59;;;;;;;25.40;11.70;;;;;;;;;;5091349;28;20094;-92
2022/03/01 09:41:25;;;;;;;24.17;12.27;;;;;;;;;;5089787;28;20085;-90
2022/03/01 09:43:53;;;;;;;30.33;11.95;;;;;;;;;;5089926;28;20494;-91
2022/03/01 09:46:19;;;;;;;27.45;12.80;;;;;;;;;;5089960;28;20585;-93
2022/03/01 09:48:45;;;;;;;27.15;11.63;;;;;;;;;;5090262;28;20076;-90
2022/03/01 09:51:12;;;;;;;28.17;10.90;;;;;;;;;;5089823;28;20028;-92
2022/03/01 09:53:40;;;;;;;27.23;12.43;;;;;;;;;;5089935;28;20024;-92
2022/03/01 09:56:07;;;;;;;36.40;11.38;;;;;;;;;;5089591;28;20040;-92
2022/03/01 09:58:34;;;;;;;22.17;11.45;;;;;;;;;;5090152;28;20046;-91
2022/03/01 10:01:00;;;;;;;24.48;11.20;;;;;;;;;;5089712;28;20024;-92
2022/03/01 10:03:28;;;;;;;21.00;10.77;;;;;;;;;;5091524;28;20024;-92
2022/03/01 10:05:54;;;;;;;22.67;10.47;;;;;;;;;;5098814;28;20025;-93
2022/03/01 10:08:21;;;;;;;18.80;9.73;;;;;;;;;;5089823;28;20028;-91
2022/03/01 10:10:53;;;;;;;28.05;10.70;;;;;;;;;;5090364;28;20484;-92
2022/03/01 10:13:27;;;;;;;24.45;10.05;;;;;;;;;;5089766;28;20064;-91
2022/03/01 10:16:03;;;;;;;22.45;10.40;;;;;;;;;;5089542;28;20559;-91
2022/03/01 10:18:40;;;;;;;25.65;10.63;;;;;;;;;;5089536;28;20032;-93
2022/03/01 10:21:09;;;;;;;21.17;9.98;;;;;;;;;;5089278;28;20506;-92
2022/03/01 10:23:36;;;;;;;23.95;10.40;;;;;;;;;;5089725;28;20032;-92
2022/03/01 10:26:16;;;;;;;18.33;10.13;;;;;;;;;;5089383;28;20016;-91
2022/03/01 10:28:43;;;;;;;21.45;10.73;;;;;;;;;;5089412;28;20070;-91
2022/03/01 10:31:20;;;;;;;20.42;10.38;;;;;;;;;;5089338;28;20245;-91
2022/03/01 10:33:54;;;;;;;20.95;10.35;;;;;;;;;;5090035;28;20055;-92
2022/03/01 10:36:22;;;;;;;26.85;10.88;;;;;;;;;;5089419;28;20111;-91
2022/03/01 10:39:14;;;;;;;24.63;10.52;;;;;;;;;;5089853;28;20050;-90
2022/03/01 10:41:48;;;;;;;26.40;10.48;;;;;;;;;;5084891;28;20032;-91
2022/03/01 10:44:15;;;;;;;20.85;10.10;;;;;;;;;;5089288;28;20509;-91
2022/03/01 10:46:46;;;;;;;24.37;10.47;;;;;;;;;;5089452;28;20062;-91
2022/03/01 10:49:18;;;;;;;21.08;10.45;;;;;;;;;;5089226;28;20020;-92
2022/03/01 10:51:49;;;;;;;22.48;11.00;;;;;;;;;;5089201;28;20020;-91
2022/03/01 10:54:32;;;;;;;19.50;10.32;;;;;;;;;;5090527;28;20434;-91
2022/03/01 10:56:59;;;;;;;22.92;10.60;;;;;;;;;;5093007;28;20546;-92
2022/03/01 10:59:26;;;;;;;29.20;10.68;;;;;;;;;;5092832;28;20403;-91
2022/03/01 11:01:53;;;;;;;22.33;11.50;;;;;;;;;;5092842;28;20039;-92
2022/03/01 11:04:21;;;;;;;22.90;11.60;;;;;;;;;;5093466;28;20039;-92
2022/03/01 11:06:48;;;;;;;23.23;11.70;;;;;;;;;;5093450;28;20052;-93
2022/03/01 11:09:15;;;;;;;22.13;11.60;;;;;;;;;;5092552;28;20024;-92
2022/03/01 11:11:42;;;;;;;24.75;11.93;;;;;;;;;;5092473;28;20027;-91
2022/03/01 11:14:10;;;;;;;22.30;11.93;;;;;;;;;;5092621;28;20263;-91
2022/03/01 11:16:51;;;;;;;29.17;11.73;;;;;;;;;;5092485;28;20024;-92
2022/03/01 11:19:19;;;;;;;20.85;10.80;;;;;;;;;;5093209;28;20028;-91
2022/03/01 11:21:47;;;;;;;19.77;11.35;;;;;;;;;;5092410;28;20070;-91
2022/03/01 11:24:13;;;;;;;;;;;;;;;;;;5092888;28;20024;-91
2022/03/01 11:26:40;;;;;;;20.83;11.85;;;;;;;;;;5093705;28;19904;-92
2022/03/01 11:29:10;;;;;;;26.65;11.35;;;;;;;;;;5092387;28;20020;-91
2022/03/01 11:31:37;;;;;;;23.48;11.43;;;;;;;;;;5092014;28;20024;-90
2022/03/01 11:34:08;;;;;;;24.30;12.10;;;;;;;;;;5092261;28;20476;-92
2022/03/01 11:36:35;;;;;;;18.60;11.13;;;;;;;;;;5092142;28;20028;-92
2022/03/01 11:39:12;;;;;;;25.05;11.13;;;;;;;;;;5092126;28;20368;-91
2022/03/01 11:42:01;;;;;;;21.42;11.15;;;;;;;;;;5091980;28;20078;-92
2022/03/01 11:44:32;;;;;;;22.00;10.80;;;;;;;;;;5091621;28;20406;-91
2022/03/01 11:47:02;;;;;;;25.98;11.73;;;;;;;;;;5091931;28;20032;-91
2022/03/01 11:49:33;;;;;;;20.27;11.70;;;;;;;;;;5091682;28;20020;-92
2022/03/01 11:52:00;;;;;;;21.10;11.82;;;;;;;;;;5091995;28;20035;-92
2022/03/01 11:54:29;;;;;;;18.05;11.82;;;;;;;;;;5092005;28;20013;-91
2022/03/01 11:56:57;;;;;;;24.60;11.85;;;;;;;;;;5091731;28;20417;-91
2022/03/01 11:59:24;;;;;;;22.02;11.63;;;;;;;;;;5093529;28;20020;-91
2022/03/01 12:01:51;;;;;;;23.80;11.02;;;;;;;;;;5092340;28;20075;-92
2022/03/01 12:04:28;;;;;;;20.48;10.63;;;;;;;;;;5091880;28;20059;-91
2022/03/01 12:06:55;;;;;;;19.02;11.07;;;;;;;;;;5091607;28;20138;-91
2022/03/01 12:09:30;;;;;;;23.73;11.02;;;;;;;;;;5092461;28;20491;-90
2022/03/01 12:12:09;;;;;;;20.90;10.55;;;;;;;;;;5091516;28;20035;-92
2022/03/01 12:14:36;;;;;;;18.58;10.68;;;;;;;;;;5091569;28;20051;-92
2022/03/01 12:17:17;;;;;;;22.83;11.30;;;;;;;;;;5091490;28;20399;-91
2022/03/01 12:19:43;;;;;;;17.42;10.35;;;;;;;;;;5091011;28;20028;-91
2022/03/01 12:22:09;;;;;;;23.70;11.43;;;;;;;;;;5091407;28;20024;-92
2022/03/01 12:24:35;;;;;;;23.38;10.90;;;;;;;;;;5091267;28;20024;-91
2022/03/01 12:27:03;;;;;;;21.77;10.90;;;;;;;;;;5091148;28;20036;-92
2022/03/01 12:29:30;;;;;;;21.17;10.77;;;;;;;;;;5091015;28;20059;-91
2022/03/01 12:32:02;;;;;;;21.25;11.43;;;;;;;;;;5091258;28;20132;-91
2022/03/01 12:34:31;;;;;;;19.35;10.85;;;;;;;;;;5100931;28;20042;-92
2022/03/01 12:36:58;;;;;;;28.75;10.43;;;;;;;;;;5102818;28;20010;-91
2022/03/01 12:39:27;;;;;;;19.45;9.52;;;;;;;;;;5107672;28;20058;-90
2022/03/01 12:41:53;;;;;;;19.63;10.20;;;;;;;;;;5107701;28;20039;-91
2022/03/01 12:44:23;;;;;;;22.35;10.57;;;;;;;;;;5091003;28;20028;-91
2022/03/01 12:46:50;;;;;;;21.35;10.85;;;;;;;;;;5090743;28;20107;-92
2022/03/01 12:49:17;;;;;;;20.73;10.30;;;;;;;;;;5090641;28;20020;-93
2022/03/01 12:51:43;;;;;;;25.70;10.52;;;;;;;;;;5090741;28;20506;-92
2022/03/01 12:54:11;;;;;;;25.75;10.80;;;;;;;;;;5090623;28;20020;-91
2022/03/01 12:56:37;;;;;;;18.63;10.27;;;;;;;;;;5090303;28;20028;-91
2022/03/01 12:59:08;;;;;;;22.20;10.55;;;;;;;;;;5090633;28;20062;-91
2022/03/01 13:01:35;;;;;;;18.58;10.02;;;;;;;;;;5090478;28;20034;-92
2022/03/01 13:04:03;;;;;;;19.60;10.40;;;;;;;;;;5090817;28;20063;-92
2022/03/01 13:06:31;;;;;;;17.17;9.98;;;;;;;;;;5090337;28;20044;-92
2022/03/01 13:08:57;;;;;;;21.45;10.15;;;;;;;;;;5091007;28;20028;-91
2022/03/01 13:11:24;;;;;;;22.45;9.77;;;;;;;;;;5091041;28;20028;-92
2022/03/01 13:13:52;;;;;;;18.52;10.73;;;;;;;;;;5090306;28;20028;-91
2022/03/01 13:16:25;;;;;;;23.42;10.63;;;;;;;;;;5089909;28;20029;-92
2022/03/01 13:18:52;;;;;;;20.58;10.65;;;;;;;;;;5090220;28;20119;-91
2022/03/01 13:21:42;;;;;;;19.80;10.75;;;;;;;;;;5090241;28;20297;-91
2022/03/01 13:24:29;;;;;;;20.10;10.93;;;;;;;;;;5077878;28;20487;-91
2022/03/01 13:26:56;;;;;;;21.00;10.85;;;;;;;;;;5092027;28;20028;-92
2022/03/01 13:29:25;;;;;;;20.77;10.83;;;;;;;;;;5090070;28;20446;-91
2022/03/01 13:32:01;;;;;;;19.60;11.00;;;;;;;;;;5089934;28;20320;-91
2022/03/01 13:34:27;;;;;;;22.48;11.73;;;;;;;;;;5090630;28;20024;-91
2022/03/01 13:36:53;;;;;;;17.10;10.93;;;;;;;;;;5089967;28;20020;-92
2022/03/01 13:39:20;;;;;;;25.50;11.02;;;;;;;;;;5090056;28;20572;-91
2022/03/01 13:41:52;;;;;;;21.58;11.32;;;;;;;;;;5089699;28;20031;-91
2022/03/01 13:44:23;;;;;;;19.48;10.75;;;;;;;;;;5089947;28;20028;-91
2022/03/01 13:46:57;;;;;;;24.15;11.73;;;;;;;;;;5089800;28;20274;-91
2022/03/01 13:49:27;;;;;;;19.48;11.50;;;;;;;;;;5089877;28;20024;-92
2022/03/01 13:52:07;;;;;;;22.02;11.20;;;;;;;;;;5089825;28;20503;-92
2022/03/01 13:54:34;;;;;;;19.48;11.02;;;;;;;;;;5089695;28;20111;-92
2022/03/01 13:57:00;;;;;;;20.85;11.60;;;;;;;;;;5089789;28;20487;-93
2022/03/01 13:59:26;;;;;;;23.20;11.70;;;;;;;;;;5090348;28;20020;-92
2022/03/01 14:01:53;;;;;;;20.27;11.45;;;;;;;;;;5089728;28;20020;-91
2022/03/01 14:04:26;;;;;;;23.88;12.02;;;;;;;;;;5089576;28;20032;-91
2022/03/01 14:06:55;;;;;;;19.08;11.23;;;;;;;;;;5089623;28;20024;-91
2022/03/01 14:09:23;;;;;;;21.52;12.57;;;;;;;;;;5089528;28;20032;-91
2022/03/01 14:11:57;;;;;;;20.98;11.88;;;;;;;;;;5089482;28;20020;-92
2022/03/01 14:14:23;;;;;;;20.92;11.40;;;;;;;;;;5089374;28;20028;-92
2022/03/01 14:16:52;;;;;;;24.73;12.20;;;;;;;;;;5089457;28;20028;-92
2022/03/01 14:19:19;;;;;;;21.85;12.10;;;;;;;;;;5089567;28;20035;-92
2022/03/01 14:21:48;;;;;;;22.20;12.15;;;;;;;;;;5089395;28;20028;-92
2022/03/01 14:24:17;;;;;;;26.60;12.80;;;;;;;;;;5089274;28;20028;-92
2022/03/01 14:26:44;;;;;;;21.10;11.88;;;;;;;;;;5089308;28;20106;-92
2022/03/01 14:29:11;;;;;;;24.30;11.87;;;;;;;;;;5090712;28;20028;-91